Time;durP1;ratioP1;P1;durP2;ratioP2;P2;SDS_P1;SDS_P2;PMS_P1;PMS_P2;Temp;Humidity;BMP_temperature;BMP_pressure;BME280_temperature;BME280_humidity;BME280_pressure;Samples;Min_cycle;Max_cycle;Signal;HPM_P1;HPM_P2
2022/10/24 04:02:24;;;;;;;9.50;3.00;;;16.80;99.90;;;;;;5174917;22;21026;-76
2022/10/24 04:04:50;;;;;;;8.90;2.23;;;16.70;99.90;;;;;;5026275;28;20458;-76
2022/10/24 04:07:17;;;;;;;11.13;2.87;;;16.70;99.90;;;;;;5026142;28;20453;-76
2022/10/24 04:09:44;;;;;;;8.30;2.20;;;16.70;99.90;;;;;;5026163;28;20466;-77
2022/10/24 04:12:11;;;;;;;7.67;2.87;;;16.70;99.90;;;;;;5026535;28;20474;-77
2022/10/24 04:14:38;;;;;;;11.20;3.13;;;16.70;99.90;;;;;;5026740;28;20462;-78
2022/10/24 04:17:04;;;;;;;8.00;2.60;;;16.70;99.90;;;;;;5027681;28;20493;-77
2022/10/24 04:19:33;;;;;;;13.20;3.33;;;16.80;99.90;;;;;;5026562;28;20460;-77
2022/10/24 04:22:00;;;;;;;8.90;2.90;;;16.70;99.90;;;;;;5026550;28;20819;-76
2022/10/24 04:24:27;;;;;;;9.10;2.90;;;16.70;99.90;;;;;;5028679;28;20461;-77
2022/10/24 04:26:54;;;;;;;8.37;2.77;;;16.70;99.90;;;;;;5029564;28;20946;-76
2022/10/24 04:29:21;;;;;;;13.23;2.87;;;16.70;99.90;;;;;;5027595;28;20982;-78
2022/10/24 04:31:47;;;;;;;4.30;2.40;;;16.70;99.90;;;;;;5028391;28;20474;-81
2022/10/24 04:34:14;;;;;;;9.83;2.90;;;16.80;99.90;;;;;;5027153;28;20828;-76
2022/10/24 04:36:42;;;;;;;9.80;2.80;;;16.70;99.90;;;;;;5026829;28;20501;-79
2022/10/24 04:39:09;;;;;;;8.20;2.50;;;16.80;99.90;;;;;;5026351;28;20957;-79
2022/10/24 04:41:36;;;;;;;11.23;3.20;;;16.80;99.90;;;;;;5026825;28;20477;-78
2022/10/24 04:44:03;;;;;;;11.67;2.77;;;16.70;99.90;;;;;;5026493;28;20465;-78
2022/10/24 04:46:30;;;;;;;10.27;3.43;;;16.70;99.90;;;;;;5026711;28;20464;-79
2022/10/24 04:48:56;;;;;;;8.43;2.87;;;16.70;99.90;;;;;;5026667;28;20473;-78
2022/10/24 04:51:23;;;;;;;14.63;3.47;;;16.80;99.90;;;;;;5026630;28;20485;-77
2022/10/24 04:53:51;;;;;;;5.70;2.90;;;16.80;99.90;;;;;;5025638;28;20465;-79
2022/10/24 04:56:19;;;;;;;13.87;3.57;;;16.70;99.90;;;;;;5024448;28;20458;-77
2022/10/24 04:58:45;;;;;;;9.17;3.20;;;16.80;99.90;;;;;;5026495;28;21252;-77
2022/10/24 05:01:12;;;;;;;9.13;2.90;;;16.80;99.90;;;;;;5027793;28;20486;-78
2022/10/24 05:03:39;;;;;;;14.07;2.93;;;16.80;99.90;;;;;;5029014;28;20481;-79
2022/10/24 05:06:06;;;;;;;6.67;2.47;;;16.80;99.90;;;;;;5027304;28;20462;-81
2022/10/24 05:08:33;;;;;;;5.80;3.00;;;16.80;99.90;;;;;;5027861;28;20450;-79
2022/10/24 05:11:01;;;;;;;10.83;3.10;;;16.80;99.90;;;;;;5026884;28;20478;-80
2022/10/24 05:13:28;;;;;;;9.70;2.30;;;16.70;99.90;;;;;;5028041;28;20454;-81
2022/10/24 05:15:54;;;;;;;8.73;2.73;;;16.70;99.90;;;;;;5029647;28;20457;-79
2022/10/24 05:18:21;;;;;;;10.27;2.73;;;16.80;99.90;;;;;;5025063;28;20488;-78
2022/10/24 05:20:48;;;;;;;6.00;2.20;;;16.80;99.90;;;;;;5048234;28;20481;-81
2022/10/24 05:23:15;;;;;;;6.60;2.97;;;16.80;99.90;;;;;;5048227;28;20475;-78
2022/10/24 05:25:42;;;;;;;7.37;3.50;;;16.80;99.90;;;;;;5047193;28;20460;-78
2022/10/24 05:28:10;;;;;;;9.13;3.03;;;16.80;99.90;;;;;;5047187;28;20459;-79
2022/10/24 05:30:36;;;;;;;4.77;2.30;;;16.80;99.90;;;;;;5046643;28;21200;-79
2022/10/24 05:33:03;;;;;;;8.07;2.67;;;16.80;99.90;;;;;;5047710;28;20453;-79
2022/10/24 05:35:30;;;;;;;9.57;3.30;;;16.90;99.90;;;;;;5046585;28;20463;-81
2022/10/24 05:37:57;;;;;;;9.67;3.30;;;16.90;99.90;;;;;;5046682;28;20493;-84
2022/10/24 05:40:24;;;;;;;6.83;3.03;;;17.00;99.90;;;;;;5048959;28;20473;-79
2022/10/24 05:42:51;;;;;;;14.00;2.60;;;17.00;99.90;;;;;;5050495;28;20468;-78
2022/10/24 05:45:19;;;;;;;7.77;2.40;;;17.00;99.90;;;;;;5049957;28;20461;-79
2022/10/24 05:47:46;;;;;;;11.30;2.70;;;17.00;99.90;;;;;;5050563;28;20468;-84
2022/10/24 05:50:13;;;;;;;8.00;2.53;;;17.10;99.90;;;;;;5044563;28;20500;-78
2022/10/24 05:52:41;;;;;;;9.07;2.50;;;17.10;99.90;;;;;;5028008;28;20462;-81
2022/10/24 05:55:09;;;;;;;7.70;2.67;;;17.20;99.90;;;;;;5034506;28;20457;-78
2022/10/24 05:57:36;;;;;;;16.20;3.10;;;17.20;99.90;;;;;;5033894;28;21036;-79
2022/10/24 06:00:05;;;;;;;12.97;3.27;;;17.20;99.90;;;;;;5033229;28;20823;-79
2022/10/24 06:02:34;;;;;;;12.40;3.20;;;17.10;99.90;;;;;;5033917;28;20507;-81
2022/10/24 06:05:01;;;;;;;7.63;3.27;;;17.10;99.90;;;;;;5032287;28;20480;-79
2022/10/24 06:07:27;;;;;;;9.30;2.73;;;17.00;99.90;;;;;;5030813;28;20473;-79
2022/10/24 06:09:54;;;;;;;18.03;3.70;;;17.00;99.90;;;;;;5030608;28;20457;-78
2022/10/24 06:12:21;;;;;;;9.57;2.57;;;17.00;99.90;;;;;;5028500;28;20993;-77
2022/10/24 06:14:48;;;;;;;10.90;3.23;;;16.90;99.90;;;;;;5032902;28;20456;-78
2022/10/24 06:17:14;;;;;;;10.20;2.90;;;16.90;99.90;;;;;;5031162;28;20491;-79
2022/10/24 06:19:42;;;;;;;6.00;2.50;;;16.80;99.90;;;;;;5028246;28;20465;-77
2022/10/24 06:22:09;;;;;;;11.33;3.00;;;16.80;99.90;;;;;;5028305;28;20478;-78
2022/10/24 06:24:37;;;;;;;9.40;2.60;;;16.90;99.90;;;;;;5027395;28;20465;-78
2022/10/24 06:27:05;;;;;;;8.23;3.03;;;16.80;99.90;;;;;;5028166;28;20462;-78
2022/10/24 06:29:32;;;;;;;10.63;2.93;;;16.70;99.90;;;;;;5036844;28;20453;-77
2022/10/24 06:31:59;;;;;;;11.23;3.30;;;16.70;99.90;;;;;;5040403;28;20484;-77
2022/10/24 06:34:26;;;;;;;8.13;3.27;;;16.70;99.90;;;;;;5048047;28;20475;-77
2022/10/24 06:36:54;;;;;;;9.00;3.27;;;16.70;99.90;;;;;;5048415;28;20544;-80
2022/10/24 06:39:21;;;;;;;16.00;3.53;;;16.70;99.90;;;;;;5049043;28;20460;-77
2022/10/24 06:41:47;;;;;;;9.67;3.80;;;16.70;99.90;;;;;;5048795;28;20548;-78
2022/10/24 06:44:15;;;;;;;13.00;3.70;;;16.70;99.90;;;;;;5048064;28;20467;-77
2022/10/24 06:46:41;;;;;;;10.70;4.17;;;16.70;99.90;;;;;;5048429;28;20453;-80
2022/10/24 06:49:08;;;;;;;10.77;4.23;;;16.70;99.90;;;;;;5048012;28;20453;-78
2022/10/24 06:51:35;;;;;;;8.93;3.47;;;16.70;99.90;;;;;;5048218;28;20485;-77
2022/10/24 06:54:03;;;;;;;11.10;4.53;;;16.70;99.90;;;;;;5047971;28;20464;-78
2022/10/24 06:56:30;;;;;;;8.73;4.50;;;16.70;99.90;;;;;;5048653;28;20471;-78
2022/10/24 06:58:57;;;;;;;12.33;4.00;;;16.70;99.90;;;;;;5048888;28;20731;-78
2022/10/24 07:01:26;;;;;;;10.83;3.80;;;16.70;99.90;;;;;;5043499;28;20500;-78
2022/10/24 07:03:53;;;;;;;8.10;4.00;;;16.60;99.90;;;;;;5028517;28;20549;-77
2022/10/24 07:06:21;;;;;;;22.50;3.97;;;16.60;99.90;;;;;;5028442;28;21218;-81
2022/10/24 07:08:50;;;;;;;13.27;4.07;;;16.60;99.90;;;;;;5028952;28;20461;-81
2022/10/24 07:11:18;;;;;;;10.97;3.50;;;16.50;99.90;;;;;;5029089;28;20473;-79
2022/10/24 07:13:45;;;;;;;12.63;3.67;;;16.50;99.90;;;;;;5033787;28;20922;-78
2022/10/24 07:16:12;;;;;;;7.80;3.57;;;16.50;99.90;;;;;;5042178;28;20450;-78
2022/10/24 07:18:39;;;;;;;12.00;3.57;;;16.40;99.90;;;;;;5049023;28;20497;-80
2022/10/24 07:21:14;;;;;;;8.83;3.40;;;16.50;99.90;;;;;;5045726;28;20477;-78
2022/10/24 07:23:41;;;;;;;9.60;3.77;;;16.50;99.90;;;;;;5047922;28;20459;-77
2022/10/24 07:26:10;;;;;;;10.67;4.10;;;16.50;99.90;;;;;;5048053;28;20678;-78
2022/10/24 07:28:39;;;;;;;11.27;4.07;;;16.50;99.90;;;;;;5048522;28;20464;-78
2022/10/24 07:31:07;;;;;;;12.67;4.83;;;16.50;99.90;;;;;;5048408;28;20481;-78
2022/10/24 07:33:36;;;;;;;14.03;3.67;;;16.50;99.90;;;;;;5048441;28;20461;-78
2022/10/24 07:36:03;;;;;;;8.97;3.60;;;16.40;99.90;;;;;;5047663;28;20464;-78
2022/10/24 07:38:30;;;;;;;14.83;5.20;;;16.50;99.90;;;;;;5048462;28;20499;-78
2022/10/24 07:40:57;;;;;;;13.70;4.33;;;16.40;99.90;;;;;;5048333;28;20480;-78
2022/10/24 07:43:24;;;;;;;10.70;4.27;;;16.40;99.90;;;;;;5048282;28;20464;-81
2022/10/24 07:45:52;;;;;;;11.67;3.40;;;16.40;99.90;;;;;;5046799;28;20823;-78
2022/10/24 07:48:19;;;;;;;5.07;2.93;;;16.40;99.90;;;;;;5047903;28;20449;-78
2022/10/24 07:50:47;;;;;;;13.80;3.60;;;16.40;99.90;;;;;;5047680;28;20996;-79
2022/10/24 07:53:15;;;;;;;11.00;3.90;;;16.40;99.90;;;;;;5046406;28;20464;-78
2022/10/24 07:55:43;;;;;;;12.53;3.40;;;16.40;99.90;;;;;;5029680;28;20466;-78
2022/10/24 07:58:11;;;;;;;15.80;3.40;;;16.40;99.90;;;;;;5027651;28;20493;-79
2022/10/24 08:00:38;;;;;;;9.70;3.87;;;16.40;99.90;;;;;;5027656;28;20493;-78
2022/10/24 08:03:06;;;;;;;9.40;3.37;;;16.40;99.90;;;;;;5027570;28;20438;-78
2022/10/24 08:05:33;;;;;;;8.03;3.60;;;16.40;99.90;;;;;;5026664;28;20839;-79
2022/10/24 08:08:00;;;;;;;8.23;3.00;;;16.40;99.90;;;;;;5027899;28;20553;-78
2022/10/24 08:10:26;;;;;;;11.27;3.87;;;16.50;99.90;;;;;;5027599;28;20466;-78
2022/10/24 08:12:53;;;;;;;6.50;2.87;;;16.50;99.90;;;;;;5027758;28;20462;-78
2022/10/24 08:15:21;;;;;;;5.70;2.80;;;16.50;99.90;;;;;;5026949;28;20466;-78
2022/10/24 08:17:48;;;;;;;10.63;3.47;;;16.50;99.90;;;;;;5027925;28;20490;-78
2022/10/24 08:20:16;;;;;;;7.90;2.97;;;16.50;99.90;;;;;;5027099;28;20462;-78
2022/10/24 08:22:44;;;;;;;8.77;3.90;;;16.50;99.90;;;;;;5027539;28;20468;-78
2022/10/24 08:25:13;;;;;;;13.90;3.47;;;16.50;99.90;;;;;;5026969;28;21316;-81
2022/10/24 08:27:40;;;;;;;8.33;3.10;;;16.50;99.90;;;;;;5027638;28;20462;-80
2022/10/24 08:30:08;;;;;;;5.70;2.60;;;16.40;99.90;;;;;;5027327;28;20942;-78
2022/10/24 08:32:37;;;;;;;6.27;2.10;;;16.40;99.90;;;;;;5027749;28;20478;-78
2022/10/24 08:35:04;;;;;;;7.80;3.27;;;16.30;99.90;;;;;;5026594;28;20466;-78
2022/10/24 08:37:34;;;;;;;8.77;2.97;;;16.20;99.90;;;;;;5027330;28;20469;-78
2022/10/24 08:40:04;;;;;;;11.10;2.43;;;16.20;99.90;;;;;;5027261;28;20462;-78
2022/10/24 08:42:30;;;;;;;7.07;2.67;;;16.20;99.90;;;;;;5027264;28;20485;-78
2022/10/24 08:44:57;;;;;;;8.10;2.60;;;16.20;99.90;;;;;;5026826;28;20450;-81
2022/10/24 08:47:31;;;;;;;7.90;2.83;;;16.20;99.90;;;;;;5027564;28;20454;-78
2022/10/24 08:50:04;;;;;;;11.50;2.40;;;16.20;99.90;;;;;;5028022;28;20448;-78
2022/10/24 08:52:36;;;;;;;7.30;2.67;;;16.20;99.90;;;;;;5027417;28;20493;-78
2022/10/24 08:55:10;;;;;;;10.30;3.10;;;16.20;99.90;;;;;;5027343;28;20450;-78
2022/10/24 08:57:38;;;;;;;6.83;2.33;;;16.20;99.90;;;;;;5027803;28;20452;-78
2022/10/24 09:00:13;;;;;;;6.67;2.30;;;16.30;99.90;;;;;;5027520;28;20450;-78
2022/10/24 09:02:44;;;;;;;5.40;2.50;;;16.40;99.90;;;;;;5027201;28;20845;-79
2022/10/24 09:05:21;;;;;;;4.43;2.40;;;16.40;99.90;;;;;;5026728;28;20445;-80
2022/10/24 09:07:52;;;;;;;8.73;2.20;;;16.40;99.90;;;;;;5027397;28;20453;-78
2022/10/24 09:10:23;;;;;;;7.03;2.50;;;16.40;99.90;;;;;;5027121;28;20465;-78
2022/10/24 09:12:50;;;;;;;5.73;2.40;;;16.40;99.90;;;;;;5027342;28;20468;-80
2022/10/24 09:15:24;;;;;;;8.83;2.83;;;16.40;99.90;;;;;;5028203;28;20460;-78
2022/10/24 09:17:53;;;;;;;13.77;2.70;;;16.50;99.90;;;;;;5030349;28;20457;-78
2022/10/24 09:20:24;;;;;;;4.67;2.47;;;16.40;99.90;;;;;;5030349;28;20561;-78
2022/10/24 09:22:53;;;;;;;7.93;3.27;;;16.40;99.90;;;;;;5030450;28;20504;-77
2022/10/24 09:25:23;;;;;;;10.23;3.20;;;16.40;99.90;;;;;;5029722;28;20458;-77
2022/10/24 09:27:50;;;;;;;4.80;2.73;;;16.50;99.90;;;;;;5029016;28;20849;-78
2022/10/24 09:30:20;;;;;;;5.30;2.93;;;16.50;99.90;;;;;;5028448;28;20453;-79
2022/10/24 09:32:47;;;;;;;5.33;2.60;;;16.50;99.90;;;;;;5030315;28;20422;-80
2022/10/24 09:35:19;;;;;;;10.40;2.80;;;16.40;99.90;;;;;;5029630;28;20472;-77
2022/10/24 09:37:48;;;;;;;5.60;2.50;;;16.50;99.90;;;;;;5046026;28;20453;-74
2022/10/24 09:40:22;;;;;;;7.80;3.13;;;16.50;99.90;;;;;;5048856;28;20452;-73
2022/10/24 09:42:58;;;;;;;7.87;3.23;;;16.50;99.90;;;;;;5048657;28;20822;-74
2022/10/24 09:45:35;;;;;;;7.50;3.07;;;16.50;99.90;;;;;;5047722;28;20838;-74
2022/10/24 09:48:06;;;;;;;6.57;2.60;;;16.50;99.90;;;;;;5029976;28;20507;-74
2022/10/24 09:50:35;;;;;;;7.20;3.37;;;16.50;99.90;;;;;;5028600;28;20458;-74
2022/10/24 09:53:03;;;;;;;7.43;2.40;;;16.60;99.90;;;;;;5028545;28;20825;-73
2022/10/24 09:55:33;;;;;;;8.87;2.80;;;16.60;99.90;;;;;;5028240;28;20527;-73
2022/10/24 09:58:04;;;;;;;4.50;2.10;;;16.50;99.90;;;;;;5028383;28;20466;-73
2022/10/24 10:00:33;;;;;;;9.03;2.30;;;16.60;99.90;;;;;;5027899;28;20462;-74
2022/10/24 10:03:03;;;;;;;5.63;2.57;;;16.50;99.90;;;;;;5029739;28;20453;-79
2022/10/24 10:05:43;;;;;;;6.73;3.00;;;16.60;99.90;;;;;;5029230;28;20462;-79
2022/10/24 10:08:16;;;;;;;5.70;2.80;;;16.60;99.90;;;;;;5029023;28;20442;-79
2022/10/24 10:10:54;;;;;;;4.70;2.70;;;16.60;99.90;;;;;;5029907;28;20485;-79
2022/10/24 10:13:24;;;;;;;6.27;2.80;;;16.60;99.90;;;;;;5029983;28;20494;-77
2022/10/24 10:15:54;;;;;;;11.53;2.80;;;16.60;99.90;;;;;;5029183;28;20453;-79
2022/10/24 10:18:25;;;;;;;7.17;2.30;;;16.60;99.90;;;;;;5030678;28;20489;-79
2022/10/24 10:21:06;;;;;;;7.10;2.50;;;16.70;99.90;;;;;;5029896;28;20984;-77
2022/10/24 10:23:35;;;;;;;6.77;3.00;;;16.70;99.90;;;;;;5030318;28;20422;-77
2022/10/24 10:26:06;;;;;;;7.50;2.40;;;16.70;99.90;;;;;;5028961;28;20458;-76
2022/10/24 10:28:41;;;;;;;7.03;2.70;;;16.70;99.90;;;;;;5030404;28;20434;-78
2022/10/24 10:31:09;;;;;;;8.10;2.70;;;16.70;99.90;;;;;;5029347;28;20484;-77
2022/10/24 10:33:43;;;;;;;5.80;2.90;;;16.70;99.90;;;;;;5031963;28;20439;-78
2022/10/24 10:36:16;;;;;;;5.67;2.60;;;16.70;99.90;;;;;;5029987;28;20445;-79
2022/10/24 10:38:49;;;;;;;11.43;2.70;;;16.70;99.90;;;;;;5033646;28;20489;-78
2022/10/24 10:41:30;;;;;;;4.53;2.30;;;16.80;99.90;;;;;;5048441;28;20484;-78
2022/10/24 10:44:11;;;;;;;4.37;2.80;;;16.80;99.90;;;;;;5041288;28;20802;-77
2022/10/24 10:46:48;;;;;;;5.93;2.70;;;16.80;99.90;;;;;;5028363;28;20442;-78
2022/10/24 10:49:22;;;;;;;4.90;2.80;;;16.80;99.90;;;;;;5028038;28;20456;-77
2022/10/24 10:51:55;;;;;;;7.97;2.70;;;16.90;99.90;;;;;;5029090;28;20481;-77
2022/10/24 10:55:17;;;;;;;10.53;2.90;;;16.90;99.90;;;;;;5033323;28;20455;-77
2022/10/24 10:57:54;;;;;;;11.27;2.97;;;16.90;99.90;;;;;;4975686;28;20447;-77
2022/10/24 11:00:27;;;;;;;8.20;2.60;;;16.90;99.90;;;;;;5042376;28;20480;-77
2022/10/24 11:03:09;;;;;;;6.83;2.43;;;16.90;99.90;;;;;;5048150;28;20913;-78
2022/10/24 11:05:52;;;;;;;5.70;2.30;;;17.00;99.90;;;;;;5047394;28;20447;-77
2022/10/24 11:08:48;;;;;;;2.90;1.87;;;17.00;99.90;;;;;;5047729;28;20465;-78
2022/10/24 11:11:19;;;;;;;6.07;2.40;;;17.00;99.90;;;;;;5043897;28;21028;-78
2022/10/24 11:13:51;;;;;;;8.23;2.70;;;17.00;99.90;;;;;;5028672;28;20458;-77
2022/10/24 11:16:24;;;;;;;6.90;1.97;;;17.00;99.90;;;;;;5028250;28;20442;-77
2022/10/24 11:18:53;;;;;;;12.07;2.23;;;17.00;99.90;;;;;;5028998;28;20474;-77
2022/10/24 11:21:25;;;;;;;3.20;1.90;;;17.00;99.90;;;;;;5028186;28;20560;-76
2022/10/24 11:23:55;;;;;;;3.40;2.03;;;16.90;99.90;;;;;;5028145;28;20501;-77
2022/10/24 11:26:28;;;;;;;7.80;2.50;;;16.90;99.90;;;;;;5045052;28;20465;-78
2022/10/24 11:29:02;;;;;;;3.23;1.70;;;17.00;99.90;;;;;;5048159;28;20437;-79
2022/10/24 11:31:32;;;;;;;5.20;2.13;;;17.00;99.90;;;;;;5045995;28;20480;-77
2022/10/24 11:34:03;;;;;;;6.70;2.30;;;17.00;99.90;;;;;;5047247;28;20461;-77
2022/10/24 11:36:36;;;;;;;4.00;1.57;;;16.90;99.90;;;;;;5047638;28;20453;-78
2022/10/24 11:39:12;;;;;;;4.87;2.13;;;16.90;99.90;;;;;;5047095;28;20497;-77
2022/10/24 11:41:50;;;;;;;5.53;2.43;;;16.90;99.90;;;;;;5038809;28;20559;-77
2022/10/24 11:44:30;;;;;;;7.07;1.90;;;16.90;99.90;;;;;;5046785;28;20463;-77
2022/10/24 11:47:04;;;;;;;4.40;2.10;;;17.00;99.90;;;;;;5047866;28;20832;-79
2022/10/24 11:49:35;;;;;;;10.33;2.10;;;16.90;99.90;;;;;;5047375;28;20433;-77
2022/10/24 11:52:10;;;;;;;3.97;1.50;;;16.90;99.90;;;;;;5047623;28;20848;-77
2022/10/24 11:54:44;;;;;;;6.90;2.23;;;17.00;99.90;;;;;;5046551;28;20456;-77
2022/10/24 11:57:15;;;;;;;4.10;1.60;;;17.00;99.90;;;;;;5037448;28;20453;-77
2022/10/24 11:59:43;;;;;;;3.93;1.60;;;17.00;99.90;;;;;;5028128;28;20494;-77
2022/10/24 12:02:49;;;;;;;2.77;1.60;;;17.10;99.90;;;;;;5027062;28;21199;-77
2022/10/24 12:05:43;;;;;;;4.57;1.53;;;17.10;99.90;;;;;;5026827;28;20454;-77
2022/10/24 12:08:28;;;;;;;7.10;2.03;;;17.10;99.90;;;;;;5029629;28;20454;-78
2022/10/24 12:11:10;;;;;;;3.57;1.53;;;17.10;99.90;;;;;;5029606;28;20469;-77
2022/10/24 12:14:09;;;;;;;6.40;1.70;;;17.10;99.90;;;;;;5046818;28;20457;-80
2022/10/24 12:16:49;;;;;;;3.83;1.73;;;17.20;99.90;;;;;;5035805;28;20590;-77
2022/10/24 12:19:19;;;;;;;6.57;1.53;;;17.20;99.90;;;;;;5032667;28;20861;-77
2022/10/24 12:21:51;;;;;;;2.73;1.60;;;17.10;99.90;;;;;;5026934;28;20509;-78
2022/10/24 12:24:29;;;;;;;2.40;1.63;;;17.10;99.90;;;;;;5024401;28;20442;-78
2022/10/24 12:27:01;;;;;;;2.17;1.40;;;17.10;99.90;;;;;;5025475;28;20442;-77
2022/10/24 12:29:30;;;;;;;4.77;1.80;;;17.10;99.90;;;;;;5024483;28;20501;-78
2022/10/24 12:31:59;;;;;;;6.13;1.70;;;17.10;99.90;;;;;;5024607;28;20527;-77
2022/10/24 12:34:43;;;;;;;2.60;1.53;;;17.20;99.90;;;;;;5024989;28;20458;-77
2022/10/24 12:37:30;;;;;;;3.27;1.60;;;17.20;99.90;;;;;;5032163;28;20453;-77
2022/10/24 12:39:57;;;;;;;8.40;2.33;;;17.20;99.90;;;;;;5045027;28;20495;-80
2022/10/24 12:42:57;;;;;;;3.50;2.10;;;17.20;99.90;;;;;;5043056;28;20481;-78
2022/10/24 12:45:29;;;;;;;3.57;1.40;;;17.20;99.90;;;;;;5033617;28;20969;-77
2022/10/24 12:48:31;;;;;;;3.60;1.70;;;17.20;99.90;;;;;;5034605;28;20449;-77
2022/10/24 12:51:02;;;;;;;5.33;1.87;;;17.30;99.90;;;;;;5034325;28;20542;-78
2022/10/24 12:53:58;;;;;;;3.93;1.77;;;17.20;99.90;;;;;;5045034;28;20492;-77
2022/10/24 12:56:25;;;;;;;2.93;1.60;;;17.20;99.90;;;;;;5045841;28;20433;-78
2022/10/24 12:59:01;;;;;;;2.50;1.67;;;17.30;99.90;;;;;;5045216;28;20471;-77
2022/10/24 13:01:33;;;;;;;4.57;1.70;;;17.30;99.90;;;;;;5046384;28;20532;-77
2022/10/24 13:04:29;;;;;;;3.20;1.90;;;17.30;99.90;;;;;;5046575;28;20437;-77
2022/10/24 13:07:20;;;;;;;5.97;1.67;;;17.30;99.90;;;;;;5046893;28;20445;-77
2022/10/24 13:09:58;;;;;;;6.40;1.90;;;17.40;99.90;;;;;;5046933;28;20441;-80
2022/10/24 13:12:46;;;;;;;8.00;1.70;;;17.40;99.90;;;;;;5046042;28;20472;-79
2022/10/24 13:15:25;;;;;;;6.83;1.90;;;17.40;99.90;;;;;;5046053;28;20449;-79
2022/10/24 13:18:05;;;;;;;3.40;1.40;;;17.40;99.90;;;;;;5046697;28;20495;-77
2022/10/24 13:20:37;;;;;;;4.73;1.57;;;17.40;99.90;;;;;;5046486;28;20485;-78
2022/10/24 13:23:15;;;;;;;4.27;1.40;;;17.50;99.90;;;;;;5046543;28;20447;-78
2022/10/24 13:25:43;;;;;;;4.83;1.80;;;17.50;99.90;;;;;;5045731;28;20979;-77
2022/10/24 13:28:37;;;;;;;2.87;1.77;;;17.50;99.90;;;;;;5046982;28;20558;-78
2022/10/24 13:31:53;;;;;;;3.90;1.50;;;17.60;99.90;;;;;;5046066;28;20973;-77
2022/10/24 13:34:27;;;;;;;5.43;1.70;;;17.60;99.90;;;;;;4983992;28;21002;-79
2022/10/24 13:37:05;;;;;;;2.63;1.53;;;17.60;99.90;;;;;;5034340;28;20499;-78
2022/10/24 13:39:39;;;;;;;3.23;1.50;;;17.60;99.90;;;;;;5046516;28;20473;-78
2022/10/24 13:42:08;;;;;;;2.03;1.40;;;17.60;99.90;;;;;;5046245;28;20468;-78
2022/10/24 13:44:45;;;;;;;2.17;1.70;;;17.60;99.90;;;;;;5045991;28;20468;-78
2022/10/24 13:47:18;;;;;;;6.30;1.67;;;17.60;99.90;;;;;;5046396;28;20489;-77
2022/10/24 13:49:51;;;;;;;4.90;1.63;;;17.60;99.90;;;;;;5045796;28;20828;-80
2022/10/24 13:52:22;;;;;;;3.63;2.13;;;17.70;99.90;;;;;;5046204;28;20472;-78
2022/10/24 13:54:56;;;;;;;3.40;1.63;;;17.60;99.90;;;;;;5045887;28;20476;-77
2022/10/24 13:57:29;;;;;;;5.03;1.60;;;17.70;99.90;;;;;;5046344;28;20479;-80
2022/10/24 14:00:00;;;;;;;2.40;1.67;;;17.70;99.90;;;;;;5046002;28;20850;-77
2022/10/24 14:02:31;;;;;;;4.27;1.67;;;17.70;99.90;;;;;;5047706;28;20488;-78
2022/10/24 14:04:59;;;;;;;3.33;1.57;;;17.60;99.90;;;;;;5049219;28;20438;-77
2022/10/24 14:07:28;;;;;;;4.73;1.93;;;17.60;99.90;;;;;;5049915;28;20467;-78
2022/10/24 14:10:00;;;;;;;3.50;2.13;;;17.60;99.90;;;;;;5049499;28;20945;-78
2022/10/24 14:12:30;;;;;;;5.33;1.30;;;17.70;99.90;;;;;;5049692;28;20483;-78
2022/10/24 14:15:01;;;;;;;2.83;1.43;;;17.70;99.90;;;;;;5049522;28;20444;-78
2022/10/24 14:17:30;;;;;;;5.60;1.57;;;17.70;99.90;;;;;;5049642;28;20493;-77
2022/10/24 14:19:59;;;;;;;2.80;1.60;;;17.70;99.90;;;;;;5049643;28;20869;-78
2022/10/24 14:22:28;;;;;;;3.30;1.63;;;17.70;99.90;;;;;;5049713;28;20484;-78
2022/10/24 14:24:57;;;;;;;5.60;1.80;;;17.70;99.90;;;;;;5048518;28;20453;-77
2022/10/24 14:27:24;;;;;;;4.90;1.70;;;17.70;99.90;;;;;;5049557;28;20464;-77
2022/10/24 14:30:02;;;;;;;2.53;1.97;;;17.70;99.90;;;;;;5049300;28;20464;-77
2022/10/24 14:32:30;;;;;;;4.17;1.50;;;17.60;99.90;;;;;;5049254;28;20484;-74
2022/10/24 14:34:59;;;;;;;4.33;1.30;;;17.70;99.90;;;;;;5046638;28;20953;-72
2022/10/24 14:37:31;;;;;;;5.63;1.70;;;17.70;99.90;;;;;;5043885;28;20454;-71
2022/10/24 14:40:01;;;;;;;3.40;1.37;;;17.60;99.90;;;;;;5030761;28;20500;-71
2022/10/24 14:42:29;;;;;;;2.70;1.50;;;17.70;99.90;;;;;;5027198;28;20481;-71
2022/10/24 14:44:56;;;;;;;2.90;1.47;;;17.60;99.90;;;;;;5026696;28;20492;-71
2022/10/24 14:47:28;;;;;;;5.63;1.60;;;17.60;99.90;;;;;;5028799;28;20461;-71
2022/10/24 14:49:55;;;;;;;6.20;2.10;;;17.60;99.90;;;;;;5042624;28;20453;-71
2022/10/24 14:52:28;;;;;;;4.40;1.70;;;17.60;99.90;;;;;;5046491;28;20519;-71
2022/10/24 14:55:01;;;;;;;2.83;1.47;;;17.60;99.90;;;;;;5046199;28;21618;-71
2022/10/24 14:57:30;;;;;;;2.40;1.40;;;17.70;99.90;;;;;;5047070;28;20452;-71
2022/10/24 15:00:05;;;;;;;4.67;1.57;;;17.70;99.90;;;;;;5046298;28;20845;-71
2022/10/24 15:02:36;;;;;;;3.03;1.60;;;17.90;99.90;;;;;;5046170;28;20488;-71
2022/10/24 15:05:28;;;;;;;3.60;1.60;;;18.10;99.90;;;;;;5046347;28;20445;-72
2022/10/24 15:07:59;;;;;;;3.73;1.67;;;18.20;99.90;;;;;;5046957;28;20464;-72
2022/10/24 15:10:36;;;;;;;7.23;1.83;;;18.30;99.90;;;;;;5046998;28;20446;-72
2022/10/24 15:13:10;;;;;;;7.73;2.10;;;18.30;99.90;;;;;;5046295;28;20483;-72
2022/10/24 15:15:48;;;;;;;4.10;1.90;;;18.30;99.90;;;;;;5045957;28;20456;-71
2022/10/24 15:18:19;;;;;;;2.93;1.70;;;18.20;99.90;;;;;;5048143;28;21225;-81
2022/10/24 15:20:48;;;;;;;3.20;1.50;;;18.10;99.90;;;;;;5034672;28;20502;-77
2022/10/24 15:23:21;;;;;;;3.13;1.63;;;18.10;99.90;;;;;;5028529;28;20454;-79
2022/10/24 15:26:03;;;;;;;4.27;1.90;;;18.00;99.90;;;;;;5028563;28;20442;-80
2022/10/24 15:28:45;;;;;;;4.20;1.77;;;18.00;99.90;;;;;;5029179;28;20485;-78
2022/10/24 15:31:13;;;;;;;4.13;2.00;;;17.90;99.90;;;;;;5028124;28;20694;-77
2022/10/24 15:33:40;;;;;;;2.00;1.50;;;17.90;99.90;;;;;;5027540;28;20458;-77
2022/10/24 15:36:15;;;;;;;3.17;1.83;;;17.80;99.90;;;;;;5026415;28;20463;-76
2022/10/24 15:38:42;;;;;;;2.10;1.63;;;17.70;99.90;;;;;;5027229;28;20473;-77
2022/10/24 15:41:10;;;;;;;3.53;1.70;;;17.70;99.90;;;;;;5026737;28;21001;-77
2022/10/24 15:43:39;;;;;;;3.53;1.77;;;17.70;99.90;;;;;;5027863;28;20458;-77
2022/10/24 15:46:06;;;;;;;3.63;1.80;;;17.70;99.90;;;;;;5034161;28;20549;-78
2022/10/24 15:48:33;;;;;;;3.33;1.50;;;17.70;99.90;;;;;;5027608;28;20454;-79
2022/10/24 15:51:00;;;;;;;5.73;1.83;;;17.70;99.90;;;;;;5046314;28;20471;-79
2022/10/24 15:53:27;;;;;;;3.63;1.73;;;17.60;99.90;;;;;;5046955;28;20460;-78
2022/10/24 15:55:53;;;;;;;3.67;1.70;;;17.60;99.90;;;;;;5045283;28;20468;-78
2022/10/24 15:58:21;;;;;;;10.97;2.00;;;17.50;99.90;;;;;;5044614;28;20464;-79
2022/10/24 16:00:49;;;;;;;4.23;1.67;;;17.50;99.90;;;;;;5038194;28;20499;-79
2022/10/24 16:03:21;;;;;;;2.20;1.80;;;17.40;99.90;;;;;;5047908;28;20449;-78
2022/10/24 16:05:51;;;;;;;7.30;1.80;;;17.40;99.90;;;;;;5045416;28;20469;-79
2022/10/24 16:08:19;;;;;;;2.73;1.80;;;17.40;99.90;;;;;;5030047;28;20450;-79
2022/10/24 16:10:47;;;;;;;3.73;2.03;;;17.40;99.90;;;;;;5026674;28;20484;-79
2022/10/24 16:13:15;;;;;;;2.53;1.70;;;17.40;99.90;;;;;;5026444;28;20552;-78
2022/10/24 16:15:44;;;;;;;5.13;1.70;;;17.40;99.90;;;;;;5025543;28;20453;-78
2022/10/24 16:18:13;;;;;;;4.50;2.50;;;17.30;99.90;;;;;;5025625;28;20464;-77
2022/10/24 16:20:40;;;;;;;5.27;3.60;;;17.30;99.90;;;;;;5025903;28;20494;-79
2022/10/24 16:23:07;;;;;;;14.90;5.23;;;17.30;99.90;;;;;;5025665;28;20462;-79
2022/10/24 16:25:36;;;;;;;7.60;4.23;;;17.40;99.90;;;;;;5024970;28;20465;-78
2022/10/24 16:28:03;;;;;;;5.53;3.50;;;17.40;99.90;;;;;;5026150;28;20462;-78
2022/10/24 16:30:32;;;;;;;7.50;2.40;;;17.40;99.90;;;;;;5037674;28;20453;-78
2022/10/24 16:33:00;;;;;;;5.73;2.30;;;17.30;99.90;;;;;;5045664;28;20465;-78
2022/10/24 16:35:29;;;;;;;4.57;2.20;;;17.30;99.90;;;;;;5045001;28;20457;-79
2022/10/24 16:37:57;;;;;;;6.57;1.90;;;17.20;99.90;;;;;;5034297;28;20458;-78
2022/10/24 16:40:26;;;;;;;3.93;2.03;;;17.20;99.90;;;;;;5024390;28;20492;-80
2022/10/24 16:42:54;;;;;;;5.43;2.30;;;17.20;99.90;;;;;;5025590;28;20507;-78
2022/10/24 16:45:21;;;;;;;3.67;1.90;;;17.20;99.90;;;;;;5025075;28;20454;-79
2022/10/24 16:47:49;;;;;;;7.10;2.50;;;17.20;99.90;;;;;;5041097;28;20472;-77
2022/10/24 16:50:22;;;;;;;5.90;2.50;;;17.20;99.90;;;;;;5047653;28;20539;-78
2022/10/24 16:52:49;;;;;;;4.93;2.10;;;17.20;99.90;;;;;;5047009;28;20441;-78
2022/10/24 16:55:16;;;;;;;3.93;2.00;;;17.10;99.90;;;;;;5048167;28;20455;-78
2022/10/24 16:57:43;;;;;;;6.70;2.40;;;17.10;99.90;;;;;;5048355;28;21335;-78
2022/10/24 17:00:13;;;;;;;7.27;2.50;;;17.10;99.90;;;;;;5048925;28;20463;-78
2022/10/24 17:02:41;;;;;;;4.00;2.20;;;17.00;99.90;;;;;;5047668;28;21003;-78
2022/10/24 17:05:08;;;;;;;4.47;2.30;;;17.00;99.90;;;;;;5045929;28;20453;-78
2022/10/24 17:07:37;;;;;;;8.00;3.10;;;17.00;99.90;;;;;;5044641;28;20459;-79